sensor_id;sensor_type;location;lat;lon;timestamp;P1;durP1;ratioP1;P2;durP2;ratioP2
79539;SDS011;74475;52.122;5.406;2024-01-15T00:02:00;1.85;;;1.33;;
79539;SDS011;74475;52.122;5.406;2024-01-15T00:04:26;3.45;;;1.00;;
79539;SDS011;74475;52.122;5.406;2024-01-15T00:06:53;4.00;;;1.40;;
79539;SDS011;74475;52.122;5.406;2024-01-15T00:09:19;2.10;;;0.80;;
79539;SDS011;74475;52.122;5.406;2024-01-15T00:11:46;1.70;;;0.90;;
79539;SDS011;74475;52.122;5.406;2024-01-15T00:14:12;2.45;;;0.90;;
79539;SDS011;74475;52.122;5.406;2024-01-15T00:16:40;1.98;;;1.00;;
79539;SDS011;74475;52.122;5.406;2024-01-15T00:19:07;1.67;;;0.90;;
79539;SDS011;74475;52.122;5.406;2024-01-15T00:21:34;1.65;;;1.00;;
79539;SDS011;74475;52.122;5.406;2024-01-15T00:24:00;1.17;;;0.80;;
79539;SDS011;74475;52.122;5.406;2024-01-15T00:26:27;1.90;;;0.80;;
79539;SDS011;74475;52.122;5.406;2024-01-15T00:28:53;1.73;;;1.10;;
79539;SDS011;74475;52.122;5.406;2024-01-15T00:31:20;1.98;;;0.80;;
79539;SDS011;74475;52.122;5.406;2024-01-15T00:33:46;1.88;;;0.80;;
79539;SDS011;74475;52.122;5.406;2024-01-15T00:36:13;1.40;;;0.80;;
79539;SDS011;74475;52.122;5.406;2024-01-15T00:38:41;3.30;;;1.10;;
79539;SDS011;74475;52.122;5.406;2024-01-15T00:41:07;2.15;;;0.98;;
79539;SDS011;74475;52.122;5.406;2024-01-15T00:43:34;1.70;;;0.90;;
79539;SDS011;74475;52.122;5.406;2024-01-15T00:46:04;2.63;;;0.80;;
79539;SDS011;74475;52.122;5.406;2024-01-15T00:48:30;2.03;;;0.85;;
79539;SDS011;74475;52.122;5.406;2024-01-15T00:50:58;2.53;;;1.00;;
79539;SDS011;74475;52.122;5.406;2024-01-15T00:53:25;3.08;;;0.90;;
79539;SDS011;74475;52.122;5.406;2024-01-15T00:55:51;0.88;;;0.70;;
79539;SDS011;74475;52.122;5.406;2024-01-15T00:58:18;1.55;;;0.70;;
79539;SDS011;74475;52.122;5.406;2024-01-15T01:00:45;1.52;;;1.10;;
79539;SDS011;74475;52.122;5.406;2024-01-15T01:03:11;2.00;;;0.90;;
79539;SDS011;74475;52.122;5.406;2024-01-15T01:05:38;1.95;;;1.00;;
79539;SDS011;74475;52.122;5.406;2024-01-15T01:08:05;1.75;;;0.85;;
79539;SDS011;74475;52.122;5.406;2024-01-15T01:10:31;2.67;;;1.00;;
79539;SDS011;74475;52.122;5.406;2024-01-15T01:12:58;2.88;;;1.15;;
79539;SDS011;74475;52.122;5.406;2024-01-15T01:15:24;1.48;;;0.88;;
79539;SDS011;74475;52.122;5.406;2024-01-15T01:17:51;1.85;;;0.90;;
79539;SDS011;74475;52.122;5.406;2024-01-15T01:20:17;2.92;;;1.42;;
79539;SDS011;74475;52.122;5.406;2024-01-15T01:22:44;1.75;;;0.82;;
79539;SDS011;74475;52.122;5.406;2024-01-15T01:25:11;2.80;;;0.80;;
79539;SDS011;74475;52.122;5.406;2024-01-15T01:27:38;2.88;;;1.42;;
79539;SDS011;74475;52.122;5.406;2024-01-15T01:30:04;2.17;;;0.70;;
79539;SDS011;74475;52.122;5.406;2024-01-15T01:32:31;1.50;;;0.75;;
79539;SDS011;74475;52.122;5.406;2024-01-15T01:34:58;1.70;;;0.70;;
79539;SDS011;74475;52.122;5.406;2024-01-15T01:37:25;1.65;;;0.90;;
79539;SDS011;74475;52.122;5.406;2024-01-15T01:39:51;1.73;;;0.73;;
79539;SDS011;74475;52.122;5.406;2024-01-15T01:42:18;1.63;;;0.50;;
79539;SDS011;74475;52.122;5.406;2024-01-15T01:44:44;1.60;;;0.80;;
79539;SDS011;74475;52.122;5.406;2024-01-15T01:47:12;1.60;;;0.90;;
79539;SDS011;74475;52.122;5.406;2024-01-15T01:49:40;1.70;;;0.73;;
79539;SDS011;74475;52.122;5.406;2024-01-15T01:52:08;2.90;;;0.90;;
79539;SDS011;74475;52.122;5.406;2024-01-15T01:54:35;3.17;;;0.82;;
79539;SDS011;74475;52.122;5.406;2024-01-15T01:57:04;2.40;;;0.88;;
79539;SDS011;74475;52.122;5.406;2024-01-15T01:59:32;3.17;;;0.90;;
79539;SDS011;74475;52.122;5.406;2024-01-15T02:02:00;1.60;;;0.73;;
79539;SDS011;74475;52.122;5.406;2024-01-15T02:04:30;1.45;;;0.85;;
79539;SDS011;74475;52.122;5.406;2024-01-15T02:09:33;1.77;;;0.70;;
79539;SDS011;74475;52.122;5.406;2024-01-15T02:11:59;4.15;;;0.95;;
79539;SDS011;74475;52.122;5.406;2024-01-15T02:14:26;3.15;;;0.80;;
79539;SDS011;74475;52.122;5.406;2024-01-15T02:16:53;1.20;;;0.70;;
79539;SDS011;74475;52.122;5.406;2024-01-15T02:19:19;2.47;;;0.85;;
79539;SDS011;74475;52.122;5.406;2024-01-15T02:21:46;1.40;;;0.85;;
79539;SDS011;74475;52.122;5.406;2024-01-15T02:24:13;2.85;;;0.90;;
79539;SDS011;74475;52.122;5.406;2024-01-15T02:26:39;1.10;;;0.63;;
79539;SDS011;74475;52.122;5.406;2024-01-15T02:29:09;2.00;;;0.90;;
79539;SDS011;74475;52.122;5.406;2024-01-15T02:31:36;1.48;;;0.68;;
79539;SDS011;74475;52.122;5.406;2024-01-15T02:34:04;2.65;;;0.80;;
79539;SDS011;74475;52.122;5.406;2024-01-15T02:36:30;1.45;;;0.70;;
79539;SDS011;74475;52.122;5.406;2024-01-15T02:38:57;0.90;;;0.50;;
79539;SDS011;74475;52.122;5.406;2024-01-15T02:41:23;1.00;;;0.50;;
79539;SDS011;74475;52.122;5.406;2024-01-15T02:43:50;2.15;;;0.70;;
79539;SDS011;74475;52.122;5.406;2024-01-15T02:46:16;1.77;;;0.77;;
79539;SDS011;74475;52.122;5.406;2024-01-15T02:48:43;1.80;;;0.80;;
79539;SDS011;74475;52.122;5.406;2024-01-15T02:51:09;1.00;;;0.60;;
79539;SDS011;74475;52.122;5.406;2024-01-15T02:53:36;0.82;;;0.50;;
79539;SDS011;74475;52.122;5.406;2024-01-15T02:56:03;1.13;;;0.77;;
79539;SDS011;74475;52.122;5.406;2024-01-15T02:58:30;2.63;;;0.73;;
79539;SDS011;74475;52.122;5.406;2024-01-15T03:00:56;2.63;;;0.93;;
79539;SDS011;74475;52.122;5.406;2024-01-15T03:03:23;2.08;;;0.90;;
79539;SDS011;74475;52.122;5.406;2024-01-15T03:05:50;1.00;;;0.47;;
79539;SDS011;74475;52.122;5.406;2024-01-15T03:08:16;1.95;;;0.90;;
79539;SDS011;74475;52.122;5.406;2024-01-15T03:10:43;4.13;;;0.95;;
79539;SDS011;74475;52.122;5.406;2024-01-15T03:13:10;2.17;;;0.75;;
79539;SDS011;74475;52.122;5.406;2024-01-15T03:15:36;1.33;;;0.50;;
79539;SDS011;74475;52.122;5.406;2024-01-15T03:18:02;1.27;;;0.60;;
79539;SDS011;74475;52.122;5.406;2024-01-15T03:20:29;1.10;;;0.50;;
79539;SDS011;74475;52.122;5.406;2024-01-15T03:22:56;0.90;;;0.43;;
79539;SDS011;74475;52.122;5.406;2024-01-15T03:25:22;2.30;;;0.80;;
79539;SDS011;74475;52.122;5.406;2024-01-15T03:27:48;1.40;;;0.60;;
79539;SDS011;74475;52.122;5.406;2024-01-15T03:30:15;2.00;;;0.80;;
79539;SDS011;74475;52.122;5.406;2024-01-15T03:32:42;1.08;;;0.60;;
79539;SDS011;74475;52.122;5.406;2024-01-15T03:35:08;1.23;;;0.65;;
79539;SDS011;74475;52.122;5.406;2024-01-15T03:37:35;0.98;;;0.65;;
79539;SDS011;74475;52.122;5.406;2024-01-15T03:40:01;1.10;;;0.80;;
79539;SDS011;74475;52.122;5.406;2024-01-15T03:42:29;1.27;;;0.70;;
79539;SDS011;74475;52.122;5.406;2024-01-15T03:44:55;1.88;;;0.70;;
79539;SDS011;74475;52.122;5.406;2024-01-15T03:47:22;1.23;;;0.57;;
79539;SDS011;74475;52.122;5.406;2024-01-15T03:49:48;1.42;;;0.60;;
79539;SDS011;74475;52.122;5.406;2024-01-15T03:52:15;1.55;;;0.50;;
79539;SDS011;74475;52.122;5.406;2024-01-15T03:54:41;1.25;;;0.60;;
79539;SDS011;74475;52.122;5.406;2024-01-15T03:57:08;1.98;;;0.75;;
79539;SDS011;74475;52.122;5.406;2024-01-15T03:59:34;0.82;;;0.55;;
79539;SDS011;74475;52.122;5.406;2024-01-15T04:02:01;1.48;;;0.70;;
79539;SDS011;74475;52.122;5.406;2024-01-15T04:04:27;2.38;;;0.88;;
79539;SDS011;74475;52.122;5.406;2024-01-15T04:06:54;1.02;;;0.52;;
79539;SDS011;74475;52.122;5.406;2024-01-15T04:09:20;1.30;;;0.80;;
79539;SDS011;74475;52.122;5.406;2024-01-15T04:11:47;1.65;;;0.80;;
79539;SDS011;74475;52.122;5.406;2024-01-15T04:14:13;2.47;;;0.90;;
79539;SDS011;74475;52.122;5.406;2024-01-15T04:16:39;1.27;;;0.60;;
79539;SDS011;74475;52.122;5.406;2024-01-15T04:19:06;1.55;;;0.80;;
79539;SDS011;74475;52.122;5.406;2024-01-15T04:21:32;1.88;;;0.73;;
79539;SDS011;74475;52.122;5.406;2024-01-15T04:23:59;1.80;;;0.65;;
79539;SDS011;74475;52.122;5.406;2024-01-15T04:26:25;1.35;;;0.60;;
79539;SDS011;74475;52.122;5.406;2024-01-15T04:28:52;0.93;;;0.70;;
79539;SDS011;74475;52.122;5.406;2024-01-15T04:31:22;0.63;;;0.50;;
79539;SDS011;74475;52.122;5.406;2024-01-15T04:33:50;1.25;;;0.60;;
79539;SDS011;74475;52.122;5.406;2024-01-15T04:36:17;1.15;;;0.60;;
79539;SDS011;74475;52.122;5.406;2024-01-15T04:38:43;1.17;;;0.50;;
79539;SDS011;74475;52.122;5.406;2024-01-15T04:41:13;0.60;;;0.40;;
79539;SDS011;74475;52.122;5.406;2024-01-15T04:43:41;1.92;;;0.60;;
79539;SDS011;74475;52.122;5.406;2024-01-15T04:46:08;0.95;;;0.50;;
79539;SDS011;74475;52.122;5.406;2024-01-15T04:48:34;1.13;;;0.40;;
79539;SDS011;74475;52.122;5.406;2024-01-15T04:51:03;1.60;;;0.70;;
79539;SDS011;74475;52.122;5.406;2024-01-15T04:53:30;0.57;;;0.45;;
79539;SDS011;74475;52.122;5.406;2024-01-15T04:55:57;0.65;;;0.50;;
79539;SDS011;74475;52.122;5.406;2024-01-15T04:58:23;0.75;;;0.40;;
79539;SDS011;74475;52.122;5.406;2024-01-15T05:00:53;1.67;;;0.50;;
79539;SDS011;74475;52.122;5.406;2024-01-15T05:03:20;0.85;;;0.40;;
79539;SDS011;74475;52.122;5.406;2024-01-15T05:05:47;3.28;;;0.50;;
79539;SDS011;74475;52.122;5.406;2024-01-15T05:08:13;1.42;;;0.60;;
79539;SDS011;74475;52.122;5.406;2024-01-15T05:10:40;0.95;;;0.55;;
79539;SDS011;74475;52.122;5.406;2024-01-15T05:13:06;1.30;;;0.70;;
79539;SDS011;74475;52.122;5.406;2024-01-15T05:15:33;1.73;;;0.47;;
79539;SDS011;74475;52.122;5.406;2024-01-15T05:17:59;1.13;;;0.40;;
79539;SDS011;74475;52.122;5.406;2024-01-15T05:20:26;0.60;;;0.60;;
79539;SDS011;74475;52.122;5.406;2024-01-15T05:22:53;1.75;;;0.55;;
79539;SDS011;74475;52.122;5.406;2024-01-15T05:25:19;2.17;;;0.43;;
79539;SDS011;74475;52.122;5.406;2024-01-15T05:27:45;1.35;;;0.50;;
79539;SDS011;74475;52.122;5.406;2024-01-15T05:30:12;1.55;;;1.10;;
79539;SDS011;74475;52.122;5.406;2024-01-15T05:32:39;1.15;;;0.70;;
79539;SDS011;74475;52.122;5.406;2024-01-15T05:35:06;0.82;;;0.40;;
79539;SDS011;74475;52.122;5.406;2024-01-15T05:37:32;1.00;;;0.63;;
79539;SDS011;74475;52.122;5.406;2024-01-15T05:39:59;0.88;;;0.65;;
79539;SDS011;74475;52.122;5.406;2024-01-15T05:42:26;0.93;;;0.50;;
79539;SDS011;74475;52.122;5.406;2024-01-15T05:44:52;0.88;;;0.40;;
79539;SDS011;74475;52.122;5.406;2024-01-15T05:47:19;0.82;;;0.40;;
79539;SDS011;74475;52.122;5.406;2024-01-15T05:49:45;3.17;;;0.60;;
79539;SDS011;74475;52.122;5.406;2024-01-15T05:52:12;1.42;;;0.40;;
79539;SDS011;74475;52.122;5.406;2024-01-15T05:54:38;1.65;;;0.60;;
79539;SDS011;74475;52.122;5.406;2024-01-15T05:57:05;1.58;;;0.60;;
79539;SDS011;74475;52.122;5.406;2024-01-15T05:59:31;0.85;;;0.55;;
79539;SDS011;74475;52.122;5.406;2024-01-15T06:02:00;1.23;;;0.40;;
79539;SDS011;74475;52.122;5.406;2024-01-15T06:04:26;1.55;;;0.70;;
79539;SDS011;74475;52.122;5.406;2024-01-15T06:06:53;0.85;;;0.38;;
79539;SDS011;74475;52.122;5.406;2024-01-15T06:09:20;1.13;;;0.60;;
79539;SDS011;74475;52.122;5.406;2024-01-15T06:11:46;1.92;;;0.55;;
79539;SDS011;74475;52.122;5.406;2024-01-15T06:14:13;0.63;;;0.32;;
79539;SDS011;74475;52.122;5.406;2024-01-15T06:16:39;2.58;;;0.60;;
79539;SDS011;74475;52.122;5.406;2024-01-15T06:19:06;0.70;;;0.40;;
79539;SDS011;74475;52.122;5.406;2024-01-15T06:21:32;1.80;;;0.52;;
79539;SDS011;74475;52.122;5.406;2024-01-15T06:23:59;0.82;;;0.60;;
79539;SDS011;74475;52.122;5.406;2024-01-15T06:26:25;2.38;;;0.45;;
79539;SDS011;74475;52.122;5.406;2024-01-15T06:28:52;1.90;;;0.60;;
79539;SDS011;74475;52.122;5.406;2024-01-15T06:31:18;2.53;;;0.93;;
79539;SDS011;74475;52.122;5.406;2024-01-15T06:33:45;2.63;;;0.70;;
79539;SDS011;74475;52.122;5.406;2024-01-15T06:36:14;2.03;;;0.60;;
79539;SDS011;74475;52.122;5.406;2024-01-15T06:38:45;4.13;;;0.50;;
79539;SDS011;74475;52.122;5.406;2024-01-15T06:41:11;2.13;;;0.68;;
79539;SDS011;74475;52.122;5.406;2024-01-15T06:43:38;0.52;;;0.38;;
79539;SDS011;74475;52.122;5.406;2024-01-15T06:46:05;3.45;;;0.90;;
79539;SDS011;74475;52.122;5.406;2024-01-15T06:48:33;2.22;;;0.60;;
79539;SDS011;74475;52.122;5.406;2024-01-15T06:51:00;1.40;;;0.57;;
79539;SDS011;74475;52.122;5.406;2024-01-15T06:53:27;1.17;;;0.60;;
79539;SDS011;74475;52.122;5.406;2024-01-15T06:55:53;0.93;;;0.50;;
79539;SDS011;74475;52.122;5.406;2024-01-15T06:58:20;2.47;;;0.70;;
79539;SDS011;74475;52.122;5.406;2024-01-15T07:00:46;1.80;;;0.82;;
79539;SDS011;74475;52.122;5.406;2024-01-15T07:03:13;1.25;;;0.55;;
79539;SDS011;74475;52.122;5.406;2024-01-15T07:05:40;1.75;;;0.60;;
79539;SDS011;74475;52.122;5.406;2024-01-15T07:08:06;0.95;;;0.43;;
79539;SDS011;74475;52.122;5.406;2024-01-15T07:10:33;1.30;;;0.47;;
79539;SDS011;74475;52.122;5.406;2024-01-15T07:13:02;1.98;;;0.65;;
79539;SDS011;74475;52.122;5.406;2024-01-15T07:15:29;1.10;;;0.60;;
79539;SDS011;74475;52.122;5.406;2024-01-15T07:17:55;1.38;;;0.40;;
79539;SDS011;74475;52.122;5.406;2024-01-15T07:20:21;1.98;;;0.65;;
79539;SDS011;74475;52.122;5.406;2024-01-15T07:22:48;2.38;;;0.57;;
79539;SDS011;74475;52.122;5.406;2024-01-15T07:25:15;1.67;;;0.70;;
79539;SDS011;74475;52.122;5.406;2024-01-15T07:27:42;1.50;;;0.70;;
79539;SDS011;74475;52.122;5.406;2024-01-15T07:30:12;1.25;;;0.50;;
79539;SDS011;74475;52.122;5.406;2024-01-15T07:32:40;1.13;;;0.50;;
79539;SDS011;74475;52.122;5.406;2024-01-15T07:35:07;0.77;;;0.50;;
79539;SDS011;74475;52.122;5.406;2024-01-15T07:37:33;0.65;;;0.40;;
79539;SDS011;74475;52.122;5.406;2024-01-15T07:40:00;1.33;;;0.75;;
79539;SDS011;74475;52.122;5.406;2024-01-15T07:42:27;3.58;;;0.60;;
79539;SDS011;74475;52.122;5.406;2024-01-15T07:44:53;2.72;;;0.63;;
79539;SDS011;74475;52.122;5.406;2024-01-15T07:47:20;0.52;;;0.38;;
79539;SDS011;74475;52.122;5.406;2024-01-15T07:49:47;1.00;;;0.52;;
79539;SDS011;74475;52.122;5.406;2024-01-15T07:52:14;2.13;;;0.63;;
79539;SDS011;74475;52.122;5.406;2024-01-15T07:54:40;1.02;;;0.30;;
79539;SDS011;74475;52.122;5.406;2024-01-15T07:57:07;1.33;;;0.60;;
79539;SDS011;74475;52.122;5.406;2024-01-15T07:59:34;0.70;;;0.40;;
79539;SDS011;74475;52.122;5.406;2024-01-15T08:02:01;0.75;;;0.40;;
79539;SDS011;74475;52.122;5.406;2024-01-15T08:04:28;2.15;;;0.45;;
79539;SDS011;74475;52.122;5.406;2024-01-15T08:06:55;1.05;;;0.45;;
79539;SDS011;74475;52.122;5.406;2024-01-15T08:09:23;1.52;;;0.47;;
79539;SDS011;74475;52.122;5.406;2024-01-15T08:11:50;2.10;;;0.40;;
79539;SDS011;74475;52.122;5.406;2024-01-15T08:14:17;1.20;;;0.32;;
79539;SDS011;74475;52.122;5.406;2024-01-15T08:16:44;1.13;;;0.43;;
79539;SDS011;74475;52.122;5.406;2024-01-15T08:19:10;1.17;;;0.40;;
79539;SDS011;74475;52.122;5.406;2024-01-15T08:21:37;1.35;;;0.40;;
79539;SDS011;74475;52.122;5.406;2024-01-15T08:24:04;0.65;;;0.32;;
79539;SDS011;74475;52.122;5.406;2024-01-15T08:26:31;0.57;;;0.32;;
79539;SDS011;74475;52.122;5.406;2024-01-15T08:28:58;0.50;;;0.45;;
79539;SDS011;74475;52.122;5.406;2024-01-15T08:31:25;1.83;;;0.70;;
79539;SDS011;74475;52.122;5.406;2024-01-15T08:33:52;0.77;;;0.50;;
79539;SDS011;74475;52.122;5.406;2024-01-15T08:36:19;1.05;;;0.60;;
79539;SDS011;74475;52.122;5.406;2024-01-15T08:38:45;0.40;;;0.32;;
79539;SDS011;74475;52.122;5.406;2024-01-15T08:41:12;1.08;;;0.68;;
79539;SDS011;74475;52.122;5.406;2024-01-15T08:43:39;1.25;;;0.40;;
79539;SDS011;74475;52.122;5.406;2024-01-15T08:46:05;0.77;;;0.32;;
79539;SDS011;74475;52.122;5.406;2024-01-15T08:48:32;1.95;;;0.63;;
79539;SDS011;74475;52.122;5.406;2024-01-15T08:50:58;0.50;;;0.40;;
79539;SDS011;74475;52.122;5.406;2024-01-15T08:53:25;1.30;;;0.32;;
79539;SDS011;74475;52.122;5.406;2024-01-15T08:55:51;0.82;;;0.50;;
79539;SDS011;74475;52.122;5.406;2024-01-15T08:58:18;0.52;;;0.50;;
79539;SDS011;74475;52.122;5.406;2024-01-15T09:00:44;1.05;;;0.28;;
79539;SDS011;74475;52.122;5.406;2024-01-15T09:03:11;1.63;;;0.40;;
79539;SDS011;74475;52.122;5.406;2024-01-15T09:05:38;1.25;;;0.40;;
79539;SDS011;74475;52.122;5.406;2024-01-15T09:08:05;3.47;;;0.40;;
79539;SDS011;74475;52.122;5.406;2024-01-15T09:10:31;0.50;;;0.40;;
79539;SDS011;74475;52.122;5.406;2024-01-15T09:12:58;1.00;;;0.32;;
79539;SDS011;74475;52.122;5.406;2024-01-15T09:15:24;1.52;;;0.40;;
79539;SDS011;74475;52.122;5.406;2024-01-15T09:17:51;1.23;;;0.50;;
79539;SDS011;74475;52.122;5.406;2024-01-15T09:20:17;0.35;;;0.17;;
79539;SDS011;74475;52.122;5.406;2024-01-15T09:22:44;0.70;;;0.38;;
79539;SDS011;74475;52.122;5.406;2024-01-15T09:25:11;1.55;;;0.30;;
79539;SDS011;74475;52.122;5.406;2024-01-15T09:27:38;1.48;;;0.40;;
79539;SDS011;74475;52.122;5.406;2024-01-15T09:30:05;0.63;;;0.30;;
79539;SDS011;74475;52.122;5.406;2024-01-15T09:32:32;2.92;;;0.40;;
79539;SDS011;74475;52.122;5.406;2024-01-15T09:34:59;0.45;;;0.30;;
79539;SDS011;74475;52.122;5.406;2024-01-15T09:37:25;1.30;;;0.70;;
79539;SDS011;74475;52.122;5.406;2024-01-15T09:40:12;0.88;;;0.25;;
79539;SDS011;74475;52.122;5.406;2024-01-15T09:42:41;2.30;;;0.40;;
79539;SDS011;74475;52.122;5.406;2024-01-15T09:45:09;2.40;;;0.50;;
79539;SDS011;74475;52.122;5.406;2024-01-15T09:47:36;0.70;;;0.50;;
79539;SDS011;74475;52.122;5.406;2024-01-15T09:50:07;0.50;;;0.40;;
79539;SDS011;74475;52.122;5.406;2024-01-15T09:52:35;1.45;;;0.50;;
79539;SDS011;74475;52.122;5.406;2024-01-15T09:55:02;0.95;;;0.60;;
79539;SDS011;74475;52.122;5.406;2024-01-15T09:57:31;1.20;;;0.60;;
79539;SDS011;74475;52.122;5.406;2024-01-15T09:59:59;2.65;;;0.65;;
79539;SDS011;74475;52.122;5.406;2024-01-15T10:02:29;1.23;;;0.57;;
79539;SDS011;74475;52.122;5.406;2024-01-15T10:04:56;1.33;;;0.50;;
79539;SDS011;74475;52.122;5.406;2024-01-15T10:07:23;1.45;;;0.50;;
79539;SDS011;74475;52.122;5.406;2024-01-15T10:09:51;1.10;;;0.32;;
79539;SDS011;74475;52.122;5.406;2024-01-15T10:12:18;0.88;;;0.50;;
79539;SDS011;74475;52.122;5.406;2024-01-15T10:14:47;1.48;;;0.30;;
79539;SDS011;74475;52.122;5.406;2024-01-15T10:17:15;1.15;;;0.70;;
79539;SDS011;74475;52.122;5.406;2024-01-15T10:19:42;0.82;;;0.40;;
79539;SDS011;74475;52.122;5.406;2024-01-15T10:22:14;0.57;;;0.22;;
79539;SDS011;74475;52.122;5.406;2024-01-15T10:24:42;0.80;;;0.30;;
79539;SDS011;74475;52.122;5.406;2024-01-15T10:27:09;1.63;;;0.55;;
79539;SDS011;74475;52.122;5.406;2024-01-15T10:29:36;0.50;;;0.22;;
79539;SDS011;74475;52.122;5.406;2024-01-15T10:32:06;0.80;;;0.50;;
79539;SDS011;74475;52.122;5.406;2024-01-15T10:34:33;2.53;;;0.52;;
79539;SDS011;74475;52.122;5.406;2024-01-15T10:37:06;0.82;;;0.38;;
79539;SDS011;74475;52.122;5.406;2024-01-15T10:39:33;1.45;;;0.50;;
79539;SDS011;74475;52.122;5.406;2024-01-15T10:42:00;1.70;;;0.70;;
79539;SDS011;74475;52.122;5.406;2024-01-15T10:44:26;1.02;;;0.40;;
79539;SDS011;74475;52.122;5.406;2024-01-15T10:46:53;1.45;;;0.30;;
79539;SDS011;74475;52.122;5.406;2024-01-15T10:49:22;2.10;;;0.73;;
79539;SDS011;74475;52.122;5.406;2024-01-15T10:51:57;2.38;;;0.60;;
79539;SDS011;74475;52.122;5.406;2024-01-15T10:54:24;0.90;;;0.30;;
79539;SDS011;74475;52.122;5.406;2024-01-15T10:56:53;0.50;;;0.30;;
79539;SDS011;74475;52.122;5.406;2024-01-15T10:59:20;1.55;;;0.38;;
79539;SDS011;74475;52.122;5.406;2024-01-15T11:01:51;2.65;;;0.50;;
79539;SDS011;74475;52.122;5.406;2024-01-15T11:04:21;0.40;;;0.30;;
79539;SDS011;74475;52.122;5.406;2024-01-15T11:06:52;1.10;;;0.40;;
79539;SDS011;74475;52.122;5.406;2024-01-15T11:09:21;0.22;;;0.20;;
79539;SDS011;74475;52.122;5.406;2024-01-15T11:11:53;0.75;;;0.50;;
79539;SDS011;74475;52.122;5.406;2024-01-15T11:14:33;1.00;;;0.35;;
79539;SDS011;74475;52.122;5.406;2024-01-15T11:17:13;1.25;;;0.47;;
79539;SDS011;74475;52.122;5.406;2024-01-15T11:19:47;0.95;;;0.60;;
79539;SDS011;74475;52.122;5.406;2024-01-15T11:24:56;1.27;;;0.30;;
79539;SDS011;74475;52.122;5.406;2024-01-15T11:27:45;2.50;;;0.60;;
79539;SDS011;74475;52.122;5.406;2024-01-15T11:30:11;0.52;;;0.32;;
79539;SDS011;74475;52.122;5.406;2024-01-15T11:32:39;1.25;;;0.40;;
79539;SDS011;74475;52.122;5.406;2024-01-15T11:40:19;0.70;;;0.40;;
79539;SDS011;74475;52.122;5.406;2024-01-15T11:42:46;1.55;;;0.40;;
79539;SDS011;74475;52.122;5.406;2024-01-15T11:45:20;1.60;;;0.45;;
79539;SDS011;74475;52.122;5.406;2024-01-15T11:50:36;1.30;;;0.50;;
79539;SDS011;74475;52.122;5.406;2024-01-15T11:56:01;1.13;;;0.57;;
79539;SDS011;74475;52.122;5.406;2024-01-15T11:58:29;1.17;;;0.57;;
79539;SDS011;74475;52.122;5.406;2024-01-15T12:00:56;0.68;;;0.32;;
79539;SDS011;74475;52.122;5.406;2024-01-15T12:03:23;1.23;;;0.30;;
79539;SDS011;74475;52.122;5.406;2024-01-15T12:05:53;1.60;;;0.40;;
79539;SDS011;74475;52.122;5.406;2024-01-15T12:08:21;1.52;;;0.45;;
79539;SDS011;74475;52.122;5.406;2024-01-15T12:10:48;1.55;;;0.82;;
79539;SDS011;74475;52.122;5.406;2024-01-15T12:13:15;1.67;;;0.40;;
79539;SDS011;74475;52.122;5.406;2024-01-15T12:15:46;1.23;;;0.32;;
79539;SDS011;74475;52.122;5.406;2024-01-15T12:18:15;1.50;;;0.50;;
79539;SDS011;74475;52.122;5.406;2024-01-15T12:20:44;1.25;;;0.50;;
79539;SDS011;74475;52.122;5.406;2024-01-15T12:23:15;1.08;;;0.43;;
79539;SDS011;74475;52.122;5.406;2024-01-15T12:25:43;1.25;;;0.50;;
79539;SDS011;74475;52.122;5.406;2024-01-15T12:28:10;0.52;;;0.30;;
79539;SDS011;74475;52.122;5.406;2024-01-15T12:30:36;1.23;;;0.47;;
79539;SDS011;74475;52.122;5.406;2024-01-15T12:33:04;0.75;;;0.40;;
79539;SDS011;74475;52.122;5.406;2024-01-15T12:35:33;1.38;;;0.40;;
79539;SDS011;74475;52.122;5.406;2024-01-15T12:38:00;2.22;;;0.45;;
79539;SDS011;74475;52.122;5.406;2024-01-15T12:40:31;3.15;;;0.40;;
79539;SDS011;74475;52.122;5.406;2024-01-15T12:42:59;1.50;;;0.32;;
79539;SDS011;74475;52.122;5.406;2024-01-15T12:45:26;0.80;;;0.22;;
79539;SDS011;74475;52.122;5.406;2024-01-15T12:47:52;0.45;;;0.38;;
79539;SDS011;74475;52.122;5.406;2024-01-15T12:50:19;2.05;;;0.40;;
79539;SDS011;74475;52.122;5.406;2024-01-15T12:52:50;1.73;;;0.30;;
79539;SDS011;74475;52.122;5.406;2024-01-15T12:55:17;1.50;;;0.60;;
79539;SDS011;74475;52.122;5.406;2024-01-15T12:57:44;0.85;;;0.47;;
79539;SDS011;74475;52.122;5.406;2024-01-15T13:00:12;2.25;;;0.32;;
79539;SDS011;74475;52.122;5.406;2024-01-15T13:02:40;0.82;;;0.30;;
79539;SDS011;74475;52.122;5.406;2024-01-15T13:05:08;0.90;;;0.30;;
79539;SDS011;74475;52.122;5.406;2024-01-15T13:07:38;0.85;;;0.25;;
79539;SDS011;74475;52.122;5.406;2024-01-15T13:10:05;0.30;;;0.30;;
79539;SDS011;74475;52.122;5.406;2024-01-15T13:12:33;0.70;;;0.30;;
79539;SDS011;74475;52.122;5.406;2024-01-15T13:15:00;0.73;;;0.30;;
79539;SDS011;74475;52.122;5.406;2024-01-15T13:17:29;0.82;;;0.32;;
79539;SDS011;74475;52.122;5.406;2024-01-15T13:19:56;1.17;;;0.30;;
79539;SDS011;74475;52.122;5.406;2024-01-15T13:22:23;1.15;;;0.25;;
79539;SDS011;74475;52.122;5.406;2024-01-15T13:24:55;1.38;;;0.52;;
79539;SDS011;74475;52.122;5.406;2024-01-15T13:27:22;0.52;;;0.38;;
79539;SDS011;74475;52.122;5.406;2024-01-15T13:29:49;1.23;;;0.32;;
79539;SDS011;74475;52.122;5.406;2024-01-15T13:32:17;1.02;;;0.38;;
79539;SDS011;74475;52.122;5.406;2024-01-15T13:34:52;0.90;;;0.50;;
79539;SDS011;74475;52.122;5.406;2024-01-15T13:37:19;0.50;;;0.30;;
79539;SDS011;74475;52.122;5.406;2024-01-15T13:39:45;0.60;;;0.20;;
79539;SDS011;74475;52.122;5.406;2024-01-15T13:42:12;1.77;;;0.40;;
79539;SDS011;74475;52.122;5.406;2024-01-15T13:44:41;0.85;;;0.30;;
79539;SDS011;74475;52.122;5.406;2024-01-15T13:47:07;2.40;;;0.57;;
79539;SDS011;74475;52.122;5.406;2024-01-15T13:49:35;1.20;;;0.30;;
79539;SDS011;74475;52.122;5.406;2024-01-15T13:52:03;1.50;;;0.52;;
79539;SDS011;74475;52.122;5.406;2024-01-15T13:54:30;1.33;;;0.50;;
79539;SDS011;74475;52.122;5.406;2024-01-15T13:57:14;0.88;;;0.30;;
79539;SDS011;74475;52.122;5.406;2024-01-15T13:59:41;0.50;;;0.28;;
79539;SDS011;74475;52.122;5.406;2024-01-15T14:02:08;1.17;;;0.45;;
79539;SDS011;74475;52.122;5.406;2024-01-15T14:04:34;1.95;;;0.20;;
79539;SDS011;74475;52.122;5.406;2024-01-15T14:07:01;0.80;;;0.63;;
79539;SDS011;74475;52.122;5.406;2024-01-15T14:09:27;1.27;;;0.45;;
79539;SDS011;74475;52.122;5.406;2024-01-15T14:11:54;0.77;;;0.40;;
79539;SDS011;74475;52.122;5.406;2024-01-15T14:14:20;1.10;;;0.47;;
79539;SDS011;74475;52.122;5.406;2024-01-15T14:16:47;2.20;;;0.47;;
79539;SDS011;74475;52.122;5.406;2024-01-15T14:19:13;1.25;;;0.45;;
79539;SDS011;74475;52.122;5.406;2024-01-15T14:21:41;2.08;;;0.50;;
79539;SDS011;74475;52.122;5.406;2024-01-15T14:24:08;5.28;;;0.57;;
79539;SDS011;74475;52.122;5.406;2024-01-15T14:26:35;1.25;;;0.50;;
79539;SDS011;74475;52.122;5.406;2024-01-15T14:29:01;1.70;;;0.65;;
79539;SDS011;74475;52.122;5.406;2024-01-15T14:31:27;2.03;;;0.50;;
79539;SDS011;74475;52.122;5.406;2024-01-15T14:33:54;1.27;;;0.50;;
79539;SDS011;74475;52.122;5.406;2024-01-15T14:36:25;1.45;;;0.30;;
79539;SDS011;74475;52.122;5.406;2024-01-15T14:38:52;1.50;;;0.60;;
79539;SDS011;74475;52.122;5.406;2024-01-15T14:41:18;0.50;;;0.30;;
79539;SDS011;74475;52.122;5.406;2024-01-15T14:43:45;0.93;;;0.45;;
79539;SDS011;74475;52.122;5.406;2024-01-15T14:46:11;2.17;;;0.60;;
79539;SDS011;74475;52.122;5.406;2024-01-15T14:48:38;1.45;;;0.47;;
79539;SDS011;74475;52.122;5.406;2024-01-15T14:51:05;1.48;;;0.70;;
79539;SDS011;74475;52.122;5.406;2024-01-15T14:53:32;2.72;;;0.70;;
79539;SDS011;74475;52.122;5.406;2024-01-15T14:55:58;1.05;;;0.50;;
79539;SDS011;74475;52.122;5.406;2024-01-15T14:58:25;1.98;;;0.60;;
79539;SDS011;74475;52.122;5.406;2024-01-15T15:00:51;3.00;;;0.73;;
79539;SDS011;74475;52.122;5.406;2024-01-15T15:03:18;1.20;;;0.70;;
79539;SDS011;74475;52.122;5.406;2024-01-15T15:05:44;2.65;;;0.60;;